Time;durP1;ratioP1;P1;durP2;ratioP2;P2;SDS_P1;SDS_P2;PMS_P1;PMS_P2;Temp;Humidity;BMP_temperature;BMP_pressure;BME280_temperature;BME280_humidity;BME280_pressure;Samples;Min_cycle;Max_cycle;Signal;HPM_P1;HPM_P2
2022/08/05 00:01:13;;;;;;;;;;;;;;;15.94;63.64;100703.72;4987334;28;1126;-56
2022/08/05 00:03:39;;;;;;;;;;;;;;;17.77;64.32;100707.59;4986535;28;1113;-53
2022/08/05 00:06:04;;;;;;;;;;;;;;;18.18;59.62;100706.53;4989725;28;1193;-56
2022/08/05 00:08:29;;;;;;;;;;;;;;;15.62;68.25;100704.69;4987171;28;2424;-56
2022/08/05 00:10:56;;;;;;;;;;;;;;;18.40;62.04;100698.66;4993311;28;959;-57
2022/08/05 00:13:21;;;;;;;;;;;;;;;16.13;63.29;100689.47;4996039;28;1914;-55
2022/08/05 00:15:47;;;;;;;;;;;;;;;17.31;65.28;100688.56;4992997;28;1007;-55
2022/08/05 00:18:12;;;;;;;;;;;;;;;18.11;60.42;100695.84;4994066;28;857;-55
2022/08/05 00:20:37;;;;;;;;;;;;;;;15.23;66.41;100696.84;4994365;28;1050;-55
2022/08/05 00:23:03;;;;;;;;;;;;;;;18.40;62.46;100690.41;4991243;28;1232;-55
2022/08/05 00:25:28;;;;;;;;;;;;;;;16.72;61.76;100688.13;4990514;28;979;-57
2022/08/05 00:27:54;;;;;;;;;;;;;;;16.73;66.25;100689.75;4987647;28;1121;-56
2022/08/05 00:30:19;;;;;;;;;;;;;;;18.16;60.66;100683.97;4993604;28;1408;-56
2022/08/05 00:32:45;;;;;;;;;;;;;;;15.19;64.80;100687.50;4990423;28;1996;-55
2022/08/05 00:35:10;;;;;;;;;;;;;;;18.17;63.29;100686.44;4995976;28;944;-56
2022/08/05 00:37:35;;;;;;;;;;;;;;;17.37;60.35;100677.25;4998385;28;2426;-57
2022/08/05 00:40:01;;;;;;;;;;;;;;;16.23;66.87;100684.03;4992318;28;1094;-57
2022/08/05 00:42:30;;;;;;;;;;;;;;;18.19;61.03;100688.91;4985816;28;904;-57
2022/08/05 00:44:55;;;;;;;;;;;;;;;15.43;63.74;100687.06;4983586;28;1141;-57
2022/08/05 00:47:21;;;;;;;;;;;;;;;17.97;63.77;100679.16;4992087;28;967;-57
2022/08/05 00:49:46;;;;;;;;;;;;;;;18.07;59.32;100686.53;4986260;28;1070;-57
2022/08/05 00:52:12;;;;;;;;;;;;;;;15.73;68.63;100676.22;4990701;28;1065;-55
2022/08/05 00:54:37;;;;;;;;;;;;;;;18.42;61.58;100676.34;4986063;28;1895;-56
2022/08/05 00:57:03;;;;;;;;;;;;;;;15.96;63.24;100674.09;4995103;28;1089;-55
2022/08/05 00:59:28;;;;;;;;;;;;;;;17.38;64.64;100670.66;4991533;28;1031;-56
2022/08/05 01:01:54;;;;;;;;;;;;;;;18.08;60.17;100674.41;4986424;28;1140;-56
2022/08/05 01:04:19;;;;;;;;;;;;;;;15.35;67.74;100670.06;4983971;28;1141;-57
2022/08/05 01:06:46;;;;;;;;;;;;;;;18.45;62.29;100665.59;4993225;28;890;-57
2022/08/05 01:09:11;;;;;;;;;;;;;;;16.49;62.16;100673.84;4994292;28;2396;-57
2022/08/05 01:11:37;;;;;;;;;;;;;;;16.88;65.44;100673.28;4994412;28;968;-57
2022/08/05 01:14:04;;;;;;;;;;;;;;;18.06;60.46;100673.88;5008772;28;1906;-55
2022/08/05 01:16:32;;;;;;;;;;;;;;;15.23;66.26;100662.09;5007766;28;1046;-57
2022/08/05 01:19:05;;;;;;;;;;;;;;;18.40;62.71;100667.56;5006129;28;879;-57
2022/08/05 01:21:50;;;;;;;;;;;;;;;16.62;61.95;100668.91;4992877;28;975;-57
2022/08/05 01:24:48;;;;;;;;;;;;;;;17.38;65.50;100673.41;4999208;28;1017;-57
2022/08/05 01:27:32;;;;;;;;;;;;;;;17.83;59.83;100664.38;4960422;28;1044;-57
2022/08/05 01:29:58;;;;;;;;;;;;;;;16.47;67.18;100667.81;4995297;28;959;-56
2022/08/05 01:32:24;;;;;;;;;;;;;;;18.14;61.13;100665.00;5009747;28;1146;-57
2022/08/05 01:35:09;;;;;;;;;;;;;;;15.26;64.13;100649.75;4986474;28;1906;-57
2022/08/05 01:37:45;;;;;;;;;;;;;;;18.30;63.05;100657.47;4979284;28;2417;-57
2022/08/05 01:40:11;;;;;;;;;;;;;;;16.48;62.06;100654.91;4994522;28;1228;-57
2022/08/05 01:42:37;;;;;;;;;;;;;;;17.01;66.04;100654.56;4987151;28;951;-56
2022/08/05 01:45:03;;;;;;;;;;;;;;;18.19;60.83;100662.22;4988097;28;1236;-56
2022/08/05 01:47:29;;;;;;;;;;;;;;;15.00;64.77;100655.13;4986904;28;999;-55
2022/08/05 01:49:54;;;;;;;;;;;;;;;18.09;63.25;100654.88;4980586;28;1141;-54
2022/08/05 01:52:19;;;;;;;;;;;;;;;17.03;60.97;100650.44;4993221;28;1018;-55
2022/08/05 01:54:45;;;;;;;;;;;;;;;16.53;67.38;100654.91;5006882;28;1902;-56
2022/08/05 01:57:11;;;;;;;;;;;;;;;18.27;61.33;100658.84;4997154;28;1200;-56
2022/08/05 01:59:37;;;;;;;;;;;;;;;15.31;64.02;100658.00;4997613;28;1132;-57
2022/08/05 02:02:02;;;;;;;;;;;;;;;17.93;64.04;100651.38;4991855;28;1059;-57
2022/08/05 02:04:28;;;;;;;;;;;;;;;17.83;59.88;100648.69;4996773;28;1125;-55
2022/08/05 02:06:54;;;;;;;;;;;;;;;15.83;67.45;100647.22;5013837;28;1396;-57
2022/08/05 02:09:20;;;;;;;;;;;;;;;18.19;61.63;100650.38;4995628;28;2428;-57
2022/08/05 02:12:08;;;;;;;;;;;;;;;15.67;63.27;100647.16;4996182;28;987;-57
2022/08/05 02:14:46;;;;;;;;;;;;;;;18.10;63.35;100645.50;4993494;28;1898;-57
2022/08/05 02:17:34;;;;;;;;;;;;;;;17.12;61.16;100647.13;4996127;28;999;-58
2022/08/05 02:20:00;;;;;;;;;;;;;;;17.01;65.63;100655.41;4993013;28;1178;-57
2022/08/05 02:22:29;;;;;;;;;;;;;;;18.06;60.39;100651.84;4980605;28;1046;-57
2022/08/05 02:24:57;;;;;;;;;;;;;;;15.18;66.13;100653.00;4990708;28;1221;-58
2022/08/05 02:27:22;;;;;;;;;;;;;;;18.34;62.58;100653.03;5013705;28;1081;-58
2022/08/05 02:29:47;;;;;;;;;;;;;;;16.79;61.46;100652.97;4985063;28;1076;-58
2022/08/05 02:32:14;;;;;;;;;;;;;;;16.62;66.57;100653.28;4980792;28;1046;-57
2022/08/05 02:34:40;;;;;;;;;;;;;;;18.07;60.87;100664.50;4991105;28;1918;-56
2022/08/05 02:37:07;;;;;;;;;;;;;;;15.25;65.10;100652.75;4997465;28;1240;-57
2022/08/05 02:39:34;;;;;;;;;;;;;;;18.13;63.54;100663.34;4989911;28;2635;-57
2022/08/05 02:41:59;;;;;;;;;;;;;;;17.28;60.50;100659.72;4996165;28;995;-57
2022/08/05 02:44:25;;;;;;;;;;;;;;;16.23;67.72;100659.31;4975600;28;1036;-57
2022/08/05 02:46:50;;;;;;;;;;;;;;;18.17;61.12;100655.34;4991934;28;1260;-58
2022/08/05 02:49:16;;;;;;;;;;;;;;;15.37;63.94;100654.16;5006836;28;971;-57
2022/08/05 02:51:41;;;;;;;;;;;;;;;17.85;63.71;100651.16;5011420;28;1050;-57
2022/08/05 02:54:07;;;;;;;;;;;;;;;17.93;59.72;100653.31;5012296;28;1906;-56
2022/08/05 02:56:32;;;;;;;;;;;;;;;15.40;67.60;100659.13;4979119;28;1122;-57
2022/08/05 02:58:58;;;;;;;;;;;;;;;18.05;61.25;100652.97;4998617;28;1150;-56
2022/08/05 03:01:24;;;;;;;;;;;;;;;15.75;62.76;100656.75;5012568;28;978;-55
2022/08/05 03:03:51;;;;;;;;;;;;;;;17.39;64.69;100655.81;5010273;28;1041;-56
2022/08/05 03:06:16;;;;;;;;;;;;;;;17.91;59.99;100661.06;4996093;28;975;-57
2022/08/05 03:08:42;;;;;;;;;;;;;;;15.28;67.73;100658.53;4988684;28;2608;-55
2022/08/05 03:11:37;;;;;;;;;;;;;;;18.18;61.82;100655.06;4992462;28;1235;-55
2022/08/05 03:14:02;;;;;;;;;;;;;;;15.55;63.31;100663.00;4984514;28;1910;-55
2022/08/05 03:16:27;;;;;;;;;;;;;;;17.61;64.12;100658.19;4986132;28;995;-56
2022/08/05 03:18:53;;;;;;;;;;;;;;;17.92;59.28;100670.94;4993282;28;1014;-55
2022/08/05 03:21:18;;;;;;;;;;;;;;;15.35;67.96;100672.00;4987570;28;1031;-57
2022/08/05 03:23:44;;;;;;;;;;;;;;;18.08;61.38;100672.47;4994546;28;1070;-55
2022/08/05 03:26:09;;;;;;;;;;;;;;;16.02;62.24;100672.19;4990526;28;991;-57
2022/08/05 03:28:35;;;;;;;;;;;;;;;17.26;65.24;100675.63;4992189;28;1201;-58
2022/08/05 03:31:00;;;;;;;;;;;;;;;17.98;59.94;100672.56;5002467;28;1026;-57
2022/08/05 03:33:26;;;;;;;;;;;;;;;15.22;66.14;100676.03;5012280;28;1910;-58
2022/08/05 03:35:52;;;;;;;;;;;;;;;18.24;62.01;100675.13;4997550;28;1252;-58
2022/08/05 03:38:17;;;;;;;;;;;;;;;16.59;61.66;100671.13;4991271;28;2684;-60
2022/08/05 03:40:43;;;;;;;;;;;;;;;16.68;66.23;100671.38;5010982;28;1065;-59
2022/08/05 03:43:08;;;;;;;;;;;;;;;18.02;60.91;100676.38;4996638;28;924;-59
2022/08/05 03:45:34;;;;;;;;;;;;;;;15.31;65.41;100674.44;4995464;28;872;-59
2022/08/05 03:47:59;;;;;;;;;;;;;;;18.16;63.52;100681.22;4987733;28;1176;-59
2022/08/05 03:50:28;;;;;;;;;;;;;;;17.46;60.56;100674.75;4993011;28;979;-58
2022/08/05 03:52:56;;;;;;;;;;;;;;;16.27;67.04;100668.66;4988596;28;1980;-59
2022/08/05 03:55:25;;;;;;;;;;;;;;;18.18;61.11;100665.25;4984456;28;1073;-55
2022/08/05 03:57:51;;;;;;;;;;;;;;;15.38;65.09;100668.72;4996357;28;1554;-55
2022/08/05 04:00:16;;;;;;;;;;;;;;;17.99;64.17;100671.44;4996072;28;975;-57
2022/08/05 04:02:45;;;;;;;;;;;;;;;17.82;59.86;100676.47;4995547;28;1208;-56
2022/08/05 04:05:11;;;;;;;;;;;;;;;15.82;67.69;100678.47;5001363;28;998;-57
2022/08/05 04:07:40;;;;;;;;;;;;;;;18.20;61.73;100672.13;4990086;28;1209;-56
2022/08/05 04:10:05;;;;;;;;;;;;;;;15.50;64.21;100673.94;5002963;28;1352;-57
2022/08/05 04:12:31;;;;;;;;;;;;;;;17.55;64.21;100677.72;4988767;28;1290;-56
2022/08/05 04:14:56;;;;;;;;;;;;;;;18.08;60.96;100660.66;4996604;28;1906;-57
2022/08/05 04:17:22;;;;;;;;;;;;;;;15.23;68.16;100674.94;4991508;28;1092;-57
2022/08/05 04:19:47;;;;;;;;;;;;;;;17.15;60.27;100665.78;4989584;28;1176;-57
2022/08/05 04:22:13;;;;;;;;;;;;;;;17.62;57.62;100670.81;4989511;28;1073;-54
2022/08/05 04:24:44;;;;;;;;;;;;;;;17.25;57.68;100668.50;4996885;28;1082;-57
2022/08/05 04:27:10;;;;;;;;;;;;;;;15.37;61.23;100665.13;4993372;28;1073;-59
2022/08/05 04:29:36;;;;;;;;;;;;;;;16.85;54.62;100664.75;4992628;28;1035;-59
2022/08/05 04:32:01;;;;;;;;;;;;;;;17.04;52.93;100671.31;4981096;28;1035;-58
2022/08/05 04:34:26;;;;;;;;;;;;;;;17.08;51.93;100669.66;4984693;28;1906;-59
2022/08/05 04:36:52;;;;;;;;;;;;;;;17.10;51.26;100663.91;4994160;28;1260;-59
2022/08/05 04:39:18;;;;;;;;;;;;;;;17.20;50.65;100668.53;4984847;28;1252;-60
2022/08/05 04:41:44;;;;;;;;;;;;;;;17.17;50.71;100669.91;4996682;28;983;-59
2022/08/05 04:44:09;;;;;;;;;;;;;;;17.22;50.18;100666.31;4987883;28;1192;-59
2022/08/05 04:46:34;;;;;;;;;;;;;;;17.14;50.27;100670.47;4985848;28;1018;-57
2022/08/05 04:49:00;;;;;;;;;;;;;;;17.25;49.69;100665.75;4997079;28;1057;-59
2022/08/05 04:51:25;;;;;;;;;;;;;;;17.22;49.65;100669.06;4995679;28;999;-59
2022/08/05 04:53:51;;;;;;;;;;;;;;;17.26;49.62;100667.41;4995953;28;1898;-58
2022/08/05 04:56:17;;;;;;;;;;;;;;;17.23;49.32;100660.53;4984754;28;956;-58
2022/08/05 04:58:43;;;;;;;;;;;;;;;17.20;49.24;100671.28;4990900;28;1070;-59
2022/08/05 05:01:08;;;;;;;;;;;;;;;17.22;49.03;100667.16;4995847;28;1170;-59
2022/08/05 05:03:33;;;;;;;;;;;;;;;17.27;49.04;100674.53;4996528;28;1086;-59
2022/08/05 05:05:59;;;;;;;;;;;;;;;17.16;49.06;100654.50;4995942;28;1135;-60
2022/08/05 05:08:24;;;;;;;;;;;;;;;17.18;48.92;100665.22;4994527;28;1377;-60
2022/08/05 05:10:50;;;;;;;;;;;;;;;17.38;50.61;100650.59;4996612;28;943;-60
2022/08/05 05:13:16;;;;;;;;;;;;;;;17.22;50.13;100656.16;4989543;28;1906;-61
2022/08/05 05:15:41;;;;;;;;;;;;;;;17.26;49.56;100661.91;4997176;28;1157;-60
2022/08/05 05:18:07;;;;;;;;;;;;;;;17.28;49.13;100668.75;4998890;28;1006;-60
2022/08/05 05:20:33;;;;;;;;;;;;;;;17.25;49.24;100660.25;4990975;28;1022;-59
2022/08/05 05:22:59;;;;;;;;;;;;;;;17.27;49.00;100658.06;4987713;28;995;-59
2022/08/05 05:25:24;;;;;;;;;;;;;;;17.26;48.96;100659.16;4994951;28;955;-59
2022/08/05 05:27:52;;;;;;;;;;;;;;;17.27;48.82;100647.06;4999319;28;1003;-59
2022/08/05 05:30:18;;;;;;;;;;;;;;;17.23;49.09;100651.47;4999945;28;959;-61
2022/08/05 05:32:43;;;;;;;;;;;;;;;17.23;48.72;100659.72;4991471;28;1063;-62
2022/08/05 05:35:09;;;;;;;;;;;;;;;17.25;48.86;100652.84;4992813;28;1909;-61
2022/08/05 05:37:45;;;;;;;;;;;;;;;17.26;48.70;100648.16;4999666;28;999;-59
2022/08/05 05:40:13;;;;;;;;;;;;;;;17.27;48.71;100647.06;4993231;28;1160;-60
2022/08/05 05:42:38;;;;;;;;;;;;;;;17.32;48.58;100644.31;5012699;28;1344;-61
2022/08/05 05:45:04;;;;;;;;;;;;;;;17.19;48.87;100640.22;4996578;28;1154;-59
2022/08/05 05:47:29;;;;;;;;;;;;;;;17.14;49.28;100648.50;4998152;28;976;-59
2022/08/05 05:49:55;;;;;;;;;;;;;;;18.55;48.15;100644.56;4984523;28;1515;-61
2022/08/05 05:52:22;;;;;;;;;;;;;;;18.19;49.92;100651.22;4988449;28;1100;-63
2022/08/05 05:54:47;;;;;;;;;;;;;;;18.05;50.81;100651.03;4999793;28;1980;-62
2022/08/05 05:57:13;;;;;;;;;;;;;;;18.01;51.52;100654.66;4994718;28;1323;-59
2022/08/05 05:59:38;;;;;;;;;;;;;;;17.91;52.35;100644.56;4992651;28;967;-57
2022/08/05 06:02:04;;;;;;;;;;;;;;;17.92;52.64;100655.25;4998480;28;1294;-60
2022/08/05 06:04:29;;;;;;;;;;;;;;;17.85;53.24;100649.25;4991251;28;1062;-60
2022/08/05 06:06:55;;;;;;;;;;;;;;;17.82;53.73;100652.53;4997416;28;1008;-61
2022/08/05 06:09:20;;;;;;;;;;;;;;;17.79;54.20;100656.69;4992261;28;971;-59
2022/08/05 06:11:45;;;;;;;;;;;;;;;17.78;54.51;100652.31;4997358;28;943;-60
2022/08/05 06:14:11;;;;;;;;;;;;;;;17.74;54.92;100655.88;4997678;28;1906;-60
2022/08/05 06:16:36;;;;;;;;;;;;;;;17.77;54.81;100661.66;4996413;28;1027;-58
2022/08/05 06:19:02;;;;;;;;;;;;;;;17.72;55.81;100655.34;4995508;28;1228;-58
2022/08/05 06:21:31;;;;;;;;;;;;;;;17.71;55.93;100657.28;4993844;28;905;-59
2022/08/05 06:23:56;;;;;;;;;;;;;;;17.70;55.95;100655.66;4991464;28;1125;-59
2022/08/05 06:26:22;;;;;;;;;;;;;;;17.64;56.32;100645.75;4993435;28;1065;-61
2022/08/05 06:28:47;;;;;;;;;;;;;;;17.64;56.28;100644.94;4988228;28;1137;-59
2022/08/05 06:31:12;;;;;;;;;;;;;;;17.64;56.65;100650.44;4992995;28;1057;-58
2022/08/05 06:33:38;;;;;;;;;;;;;;;17.62;56.98;100650.75;4990429;28;1902;-60
2022/08/05 06:36:04;;;;;;;;;;;;;;;17.84;58.29;100661.34;4998199;28;1014;-58
2022/08/05 06:38:29;;;;;;;;;;;;;;;17.87;59.03;100662.69;4997261;28;1034;-60
2022/08/05 06:40:54;;;;;;;;;;;;;;;17.88;59.10;100659.66;4988115;28;971;-57
2022/08/05 06:43:20;;;;;;;;;;;;;;;18.04;59.45;100654.91;4991849;28;1309;-58
2022/08/05 06:45:45;;;;;;;;;;;;;;;17.87;58.98;100657.19;4992306;28;922;-58
2022/08/05 06:48:11;;;;;;;;;;;;;;;17.85;58.77;100660.25;4995863;28;987;-61
2022/08/05 06:50:36;;;;;;;;;;;;;;;17.76;58.52;100671.00;4998702;28;1062;-62
2022/08/05 06:53:02;;;;;;;;;;;;;;;17.78;57.98;100660.56;4991505;28;1906;-61
2022/08/05 06:55:27;;;;;;;;;;;;;;;17.74;58.00;100670.47;4989473;28;1181;-59
2022/08/05 06:57:52;;;;;;;;;;;;;;;17.70;57.94;100666.66;4985168;28;935;-59
2022/08/05 07:00:18;;;;;;;;;;;;;;;17.69;58.02;100673.25;4996353;28;1029;-54
2022/08/05 07:02:44;;;;;;;;;;;;;;;17.70;57.73;100669.41;4997247;28;1227;-60
2022/08/05 07:05:10;;;;;;;;;;;;;;;17.66;57.61;100671.06;4990736;28;987;-61
2022/08/05 07:07:36;;;;;;;;;;;;;;;17.61;57.72;100676.59;5010509;28;1093;-60
2022/08/05 07:10:01;;;;;;;;;;;;;;;17.64;57.60;100673.25;4989115;28;1263;-60
2022/08/05 07:17:54;;;;;;;;;;;;;;;17.56;57.66;100671.13;4989222;28;967;-62
2022/08/05 07:20:20;;;;;;;;;;;;;;;17.54;57.83;100676.06;4992793;28;1038;-61
2022/08/05 07:22:45;;;;;;;;;;;;;;;17.53;57.74;100677.16;4987649;28;1030;-63
2022/08/05 07:25:11;;;;;;;;;;;;;;;17.52;57.65;100670.06;4990158;28;1235;-60
2022/08/05 07:27:36;;;;;;;;;;;;;;;17.53;57.47;100674.41;4997585;28;1002;-62
2022/08/05 07:30:02;;;;;;;;;;;;;;;17.51;57.49;100673.91;4995974;28;1141;-58
2022/08/05 07:32:27;;;;;;;;;;;;;;;17.53;57.63;100677.16;4992450;28;1003;-61
2022/08/05 07:34:52;;;;;;;;;;;;;;;17.47;57.68;100679.13;4989413;28;1973;-63
2022/08/05 07:37:18;;;;;;;;;;;;;;;17.48;57.60;100674.47;4994334;28;1011;-66
2022/08/05 07:39:43;;;;;;;;;;;;;;;17.50;57.43;100667.59;4991759;28;1105;-61
2022/08/05 07:42:09;;;;;;;;;;;;;;;17.40;57.79;100673.97;4991000;28;1184;-62
2022/08/05 07:44:34;;;;;;;;;;;;;;;17.43;57.53;100670.63;4995813;28;1038;-62
2022/08/05 07:47:00;;;;;;;;;;;;;;;17.50;57.50;100669.50;4978330;28;1250;-62
2022/08/05 07:49:25;;;;;;;;;;;;;;;17.43;57.50;100656.88;4995891;28;1232;-60
2022/08/05 07:51:51;;;;;;;;;;;;;;;17.43;57.26;100662.38;4993868;28;1329;-60
2022/08/05 07:54:16;;;;;;;;;;;;;;;17.40;57.66;100667.63;4996243;28;1906;-60
2022/08/05 07:56:42;;;;;;;;;;;;;;;17.41;57.56;100663.78;4996667;28;1255;-62
2022/08/05 07:59:07;;;;;;;;;;;;;;;17.41;57.64;100666.53;4996923;28;1319;-62
2022/08/05 08:01:32;;;;;;;;;;;;;;;17.39;57.51;100666.81;4997567;28;1168;-59
2022/08/05 08:03:58;;;;;;;;;;;;;;;17.44;57.33;100664.00;4993490;28;1134;-58
2022/08/05 08:06:23;;;;;;;;;;;;;;;17.39;57.57;100665.97;4994482;28;1380;-58
2022/08/05 08:08:49;;;;;;;;;;;;;;;17.40;57.26;100664.88;4994111;28;975;-60
2022/08/05 08:11:14;;;;;;;;;;;;;;;17.39;57.40;100666.81;4982947;28;1015;-60
2022/08/05 08:13:40;;;;;;;;;;;;;;;17.36;57.49;100667.38;4995459;28;1902;-60
2022/08/05 08:16:06;;;;;;;;;;;;;;;17.39;57.38;100666.81;4992825;28;994;-59
2022/08/05 08:18:31;;;;;;;;;;;;;;;17.40;57.28;100654.72;4991629;28;1305;-60
2022/08/05 08:20:57;;;;;;;;;;;;;;;17.37;57.40;100663.50;4994611;28;1277;-57
2022/08/05 08:23:22;;;;;;;;;;;;;;;17.35;57.21;100660.22;4991373;28;987;-59
2022/08/05 08:25:47;;;;;;;;;;;;;;;17.36;57.17;100672.88;4990688;28;1216;-59
2022/08/05 08:28:13;;;;;;;;;;;;;;;17.39;57.10;100669.56;4994324;28;959;-60
2022/08/05 08:30:39;;;;;;;;;;;;;;;17.33;58.01;100656.91;4991001;28;901;-58
2022/08/05 08:33:08;;;;;;;;;;;;;;;17.41;59.53;100653.59;4995685;28;1906;-57
2022/08/05 08:35:33;;;;;;;;;;;;;;;17.47;60.32;100650.81;4995426;28;1351;-58
2022/08/05 08:37:59;;;;;;;;;;;;;;;17.54;60.54;100645.84;4996891;28;1193;-58
2022/08/05 08:40:24;;;;;;;;;;;;;;;17.60;60.52;100647.47;4992195;28;1003;-58
2022/08/05 08:42:50;;;;;;;;;;;;;;;17.88;60.16;100648.66;4989693;28;1054;-58
2022/08/05 08:45:16;;;;;;;;;;;;;;;17.75;59.85;100644.63;4990223;28;1074;-61
2022/08/05 08:47:41;;;;;;;;;;;;;;;17.71;59.16;100632.53;4982109;28;1034;-61
2022/08/05 08:50:07;;;;;;;;;;;;;;;17.69;58.90;100645.75;4992498;28;1102;-61
2022/08/05 08:52:32;;;;;;;;;;;;;;;17.65;58.52;100639.16;4987961;28;916;-61
2022/08/05 08:54:58;;;;;;;;;;;;;;;17.63;58.54;100644.16;5005657;28;1914;-61
2022/08/05 08:57:23;;;;;;;;;;;;;;;17.67;58.34;100645.22;5007379;28;982;-61
2022/08/05 08:59:49;;;;;;;;;;;;;;;17.62;58.19;100643.31;4992583;28;1069;-61
2022/08/05 09:02:16;;;;;;;;;;;;;;;17.59;58.14;100643.88;5004120;28;1176;-60
2022/08/05 09:04:41;;;;;;;;;;;;;;;17.57;58.13;100646.09;4996417;28;983;-61
2022/08/05 09:07:07;;;;;;;;;;;;;;;17.56;58.15;100638.94;5001805;28;1066;-64
2022/08/05 09:09:32;;;;;;;;;;;;;;;17.54;57.90;100637.59;4995523;28;1192;-62
2022/08/05 09:11:58;;;;;;;;;;;;;;;17.52;57.94;100642.56;4990354;28;1232;-59
2022/08/05 09:14:23;;;;;;;;;;;;;;;17.53;57.82;100641.44;4986400;28;1902;-59
2022/08/05 09:16:49;;;;;;;;;;;;;;;17.52;57.59;100635.13;4993339;28;1023;-59
2022/08/05 09:19:14;;;;;;;;;;;;;;;17.48;57.76;100638.72;5011185;28;1002;-60
2022/08/05 09:21:40;;;;;;;;;;;;;;;17.53;57.79;100630.44;4993831;28;1062;-59
2022/08/05 09:24:07;;;;;;;;;;;;;;;17.54;58.21;100634.84;4993624;28;1133;-61
2022/08/05 09:26:33;;;;;;;;;;;;;;;17.57;57.83;100628.75;4982918;28;1494;-63
2022/08/05 09:28:59;;;;;;;;;;;;;;;17.60;58.15;100625.47;4994436;28;1058;-62
2022/08/05 09:31:25;;;;;;;;;;;;;;;17.62;58.46;100628.75;4991377;28;967;-59
2022/08/05 09:33:51;;;;;;;;;;;;;;;17.55;58.24;100620.00;5010466;28;1913;-63
2022/08/05 09:36:16;;;;;;;;;;;;;;;17.54;58.07;100626.59;4996350;28;987;-61
2022/08/05 09:39:11;;;;;;;;;;;;;;;17.49;58.10;100621.09;4993664;28;1121;-61
2022/08/05 09:41:55;;;;;;;;;;;;;;;17.47;58.09;100624.16;4972615;28;1233;-62
2022/08/05 09:44:34;;;;;;;;;;;;;;;17.43;57.97;100629.41;4996019;28;1039;-60
2022/08/05 09:47:26;;;;;;;;;;;;;;;17.45;57.90;100624.44;4984859;28;1207;-62
2022/08/05 09:49:52;;;;;;;;;;;;;;;17.44;57.53;100619.22;4990853;28;1268;-62
2022/08/05 09:52:21;;;;;;;;;;;;;;;17.40;57.61;100612.63;4995435;28;1162;-62
2022/08/05 09:54:53;;;;;;;;;;;;;;;17.41;57.63;100615.09;4991290;28;1971;-60
2022/08/05 09:57:47;;;;;;;;;;;;;;;17.43;57.63;100621.16;4987046;28;928;-58
2022/08/05 10:00:14;;;;;;;;;;;;;;;17.38;57.68;100618.44;4983323;28;1365;-57
2022/08/05 10:02:40;;;;;;;;;;;;;;;17.38;57.53;100614.88;4995928;28;1237;-59
2022/08/05 10:05:08;;;;;;;;;;;;;;;17.40;57.50;100624.47;4997898;28;1441;-61
2022/08/05 10:07:43;;;;;;;;;;;;;;;17.36;57.69;100622.56;4989047;28;1193;-60
2022/08/05 10:10:08;;;;;;;;;;;;;;;17.36;57.64;100634.38;4992893;28;1640;-60
2022/08/05 10:12:44;;;;;;;;;;;;;;;17.31;57.54;100620.66;4999710;28;1117;-63
2022/08/05 10:15:13;;;;;;;;;;;;;;;17.36;57.57;100625.31;4996048;28;1906;-59
2022/08/05 10:17:39;;;;;;;;;;;;;;;17.36;57.54;100620.66;4989196;28;1303;-58
2022/08/05 10:20:05;;;;;;;;;;;;;;;17.27;57.68;100619.59;4990800;28;1165;-59
2022/08/05 10:22:30;;;;;;;;;;;;;;;17.24;57.58;100615.47;4992336;28;964;-57
2022/08/05 10:24:56;;;;;;;;;;;;;;;17.24;57.57;100620.16;4999507;28;959;-59
2022/08/05 10:27:21;;;;;;;;;;;;;;;17.30;57.47;100619.00;4999683;28;1046;-55
2022/08/05 10:29:47;;;;;;;;;;;;;;;17.29;57.56;100617.38;4999505;28;1043;-58
2022/08/05 10:32:12;;;;;;;;;;;;;;;17.29;57.37;100622.84;4999390;28;1015;-59
2022/08/05 10:34:37;;;;;;;;;;;;;;;17.36;57.74;100617.91;4994628;28;1992;-60
2022/08/05 10:37:03;;;;;;;;;;;;;;;17.41;57.95;100626.09;4998894;28;971;-61
2022/08/05 10:39:29;;;;;;;;;;;;;;;17.42;57.91;100621.44;4998899;28;1110;-57
2022/08/05 10:41:56;;;;;;;;;;;;;;;17.37;57.79;100616.78;4997978;28;1031;-59
2022/08/05 10:44:22;;;;;;;;;;;;;;;17.34;57.63;100609.09;4997379;28;1137;-60
2022/08/05 10:46:51;;;;;;;;;;;;;;;17.34;57.64;100614.59;4997497;28;888;-60
2022/08/05 10:49:17;;;;;;;;;;;;;;;17.34;57.42;100613.78;4994972;28;1348;-60
2022/08/05 10:51:43;;;;;;;;;;;;;;;17.34;57.61;100600.84;4994754;28;1153;-58
2022/08/05 10:54:08;;;;;;;;;;;;;;;17.30;57.54;100608.03;4997070;28;1915;-61
2022/08/05 10:56:44;;;;;;;;;;;;;;;17.23;57.60;100597.31;4992364;28;1198;-58
2022/08/05 10:59:09;;;;;;;;;;;;;;;17.32;57.57;100599.50;4997903;28;919;-60
2022/08/05 11:01:40;;;;;;;;;;;;;;;17.24;57.44;100598.16;4992667;28;1062;-60
2022/08/05 11:04:06;;;;;;;;;;;;;;;17.38;57.62;100601.94;4999336;28;1118;-59
2022/08/05 11:06:32;;;;;;;;;;;;;;;17.36;57.54;100606.91;4990661;28;1075;-48
2022/08/05 11:09:14;;;;;;;;;;;;;;;17.28;57.69;100607.50;4994009;28;1349;-60
2022/08/05 11:11:41;;;;;;;;;;;;;;;17.27;57.75;100608.59;4990261;28;906;-58
2022/08/05 11:14:06;;;;;;;;;;;;;;;17.23;57.62;100602.81;4995808;28;1977;-59
2022/08/05 11:16:31;;;;;;;;;;;;;;;17.23;57.71;100605.56;4998683;28;983;-60
2022/08/05 11:19:15;;;;;;;;;;;;;;;17.22;57.30;100603.09;4991073;28;1212;-59
2022/08/05 11:21:41;;;;;;;;;;;;;;;17.19;57.29;100600.94;4994695;28;957;-60
2022/08/05 11:24:09;;;;;;;;;;;;;;;17.19;57.38;100600.94;4995829;28;1038;-60
2022/08/05 11:26:35;;;;;;;;;;;;;;;17.22;57.28;100597.63;4989941;28;1006;-62
2022/08/05 11:29:02;;;;;;;;;;;;;;;17.18;57.40;100593.78;4998590;28;999;-61
2022/08/05 11:31:30;;;;;;;;;;;;;;;17.24;57.29;100592.69;4995334;28;1185;-59
2022/08/05 11:33:56;;;;;;;;;;;;;;;17.20;57.36;100592.41;4993900;28;1999;-58
2022/08/05 11:36:45;;;;;;;;;;;;;;;17.15;57.38;100586.13;4994208;28;1148;-59
2022/08/05 11:39:12;;;;;;;;;;;;;;;17.15;57.44;100573.19;4992426;28;1170;-62
2022/08/05 11:41:37;;;;;;;;;;;;;;;17.17;57.43;100576.50;4993994;28;1292;-59
2022/08/05 11:44:05;;;;;;;;;;;;;;;17.15;57.48;100577.88;4987095;28;1461;-64
2022/08/05 11:46:49;;;;;;;;;;;;;;;17.14;57.36;100576.22;4985873;28;991;-60
2022/08/05 11:49:15;;;;;;;;;;;;;;;17.19;57.21;100578.94;4990601;28;1355;-62
2022/08/05 11:51:42;;;;;;;;;;;;;;;17.15;57.53;100583.38;4997047;28;971;-59
2022/08/05 11:54:07;;;;;;;;;;;;;;;17.15;57.13;100583.38;4991292;28;1914;-59
2022/08/05 11:56:42;;;;;;;;;;;;;;;17.10;57.62;100587.78;4991667;28;1034;-60
2022/08/05 11:59:11;;;;;;;;;;;;;;;17.12;57.04;100578.44;4986206;28;1349;-59
2022/08/05 12:01:36;;;;;;;;;;;;;;;17.17;57.34;100590.22;4997043;28;1141;-61
2022/08/05 12:04:02;;;;;;;;;;;;;;;17.07;57.14;100582.84;4996808;28;991;-61
2022/08/05 12:06:28;;;;;;;;;;;;;;;17.06;57.30;100585.88;4996800;28;983;-59
2022/08/05 12:08:57;;;;;;;;;;;;;;;17.09;57.31;100591.63;4997809;28;995;-59
2022/08/05 12:11:23;;;;;;;;;;;;;;;17.03;57.38;100592.75;4989294;28;1567;-60
2022/08/05 12:13:55;;;;;;;;;;;;;;;17.11;57.06;100591.38;4996694;28;1979;-59
2022/08/05 12:16:20;;;;;;;;;;;;;;;17.08;57.21;100586.41;4993545;28;1166;-60
2022/08/05 12:18:46;;;;;;;;;;;;;;;17.05;57.25;100585.03;4997068;28;1019;-59
2022/08/05 12:21:12;;;;;;;;;;;;;;;17.04;57.39;100590.81;4997258;28;1025;-58
2022/08/05 12:23:38;;;;;;;;;;;;;;;17.04;57.19;100582.59;4995881;28;1105;-59
2022/08/05 12:26:03;;;;;;;;;;;;;;;17.04;57.61;100579.84;5008546;28;1274;-59
2022/08/05 12:28:32;;;;;;;;;;;;;;;17.05;57.39;100579.56;4996054;28;1264;-57
2022/08/05 12:30:57;;;;;;;;;;;;;;;17.06;57.65;100578.44;4996899;28;1027;-60
2022/08/05 12:33:23;;;;;;;;;;;;;;;17.07;57.56;100571.88;4992515;28;1914;-59
2022/08/05 12:35:49;;;;;;;;;;;;;;;17.04;57.31;100575.19;4993131;28;1277;-59
2022/08/05 12:38:14;;;;;;;;;;;;;;;17.01;57.70;100573.00;5008627;28;1325;-59
2022/08/05 12:40:39;;;;;;;;;;;;;;;17.02;57.35;100579.31;4992459;28;1463;-61
2022/08/05 12:43:08;;;;;;;;;;;;;;;17.00;57.41;100587.00;4996332;28;1295;-60
2022/08/05 12:45:33;;;;;;;;;;;;;;;17.00;57.37;100584.25;4992673;28;1055;-61
2022/08/05 12:47:59;;;;;;;;;;;;;;;17.00;57.53;100582.34;4986869;28;1135;-60
2022/08/05 12:50:24;;;;;;;;;;;;;;;17.02;57.19;100574.63;5005833;28;1038;-62
2022/08/05 12:52:58;;;;;;;;;;;;;;;16.98;57.36;100573.53;4995259;28;1064;-63